sensor_id;sensor_type;location;lat;lon;timestamp;temperature;humidity
68578;SHT31;61668;45.388;11.784;2022-07-23T00:01:19;26.91;49.93
68578;SHT31;61668;45.388;11.784;2022-07-23T00:03:45;26.89;50.03
68578;SHT31;61668;45.388;11.784;2022-07-23T00:06:12;26.85;50.17
68578;SHT31;61668;45.388;11.784;2022-07-23T00:08:37;26.81;50.48
68578;SHT31;61668;45.388;11.784;2022-07-23T00:11:03;26.77;50.86
68578;SHT31;61668;45.388;11.784;2022-07-23T00:13:28;26.75;51.16
68578;SHT31;61668;45.388;11.784;2022-07-23T00:15:54;26.71;50.60
68578;SHT31;61668;45.388;11.784;2022-07-23T00:18:20;26.67;50.15
68578;SHT31;61668;45.388;11.784;2022-07-23T00:20:46;26.65;49.79
68578;SHT31;61668;45.388;11.784;2022-07-23T00:23:12;26.61;49.73
68578;SHT31;61668;45.388;11.784;2022-07-23T00:25:38;26.59;49.92
68578;SHT31;61668;45.388;11.784;2022-07-23T00:28:04;26.56;50.07
68578;SHT31;61668;45.388;11.784;2022-07-23T00:30:30;26.52;50.30
68578;SHT31;61668;45.388;11.784;2022-07-23T00:32:59;26.47;50.84
68578;SHT31;61668;45.388;11.784;2022-07-23T00:35:33;26.43;50.94
68578;SHT31;61668;45.388;11.784;2022-07-23T00:40:33;26.36;50.53
68578;SHT31;61668;45.388;11.784;2022-07-23T00:42:59;26.32;50.49
68578;SHT31;61668;45.388;11.784;2022-07-23T00:45:25;26.29;50.67
68578;SHT31;61668;45.388;11.784;2022-07-23T00:47:52;26.26;50.61
68578;SHT31;61668;45.388;11.784;2022-07-23T00:50:17;26.23;50.13
68578;SHT31;61668;45.388;11.784;2022-07-23T00:52:43;26.19;49.80
68578;SHT31;61668;45.388;11.784;2022-07-23T00:55:10;26.17;49.92
68578;SHT31;61668;45.388;11.784;2022-07-23T00:57:37;26.16;49.94
68578;SHT31;61668;45.388;11.784;2022-07-23T01:00:04;26.12;50.03
68578;SHT31;61668;45.388;11.784;2022-07-23T01:02:33;26.10;50.09
68578;SHT31;61668;45.388;11.784;2022-07-23T01:04:59;26.08;50.26
68578;SHT31;61668;45.388;11.784;2022-07-23T01:07:24;26.07;50.39
68578;SHT31;61668;45.388;11.784;2022-07-23T01:09:50;26.05;50.65
68578;SHT31;61668;45.388;11.784;2022-07-23T01:12:16;26.03;50.85
68578;SHT31;61668;45.388;11.784;2022-07-23T01:14:42;26.00;51.00
68578;SHT31;61668;45.388;11.784;2022-07-23T01:17:08;25.97;51.17
68578;SHT31;61668;45.388;11.784;2022-07-23T01:19:33;25.98;51.28
68578;SHT31;61668;45.388;11.784;2022-07-23T01:21:59;25.95;51.61
68578;SHT31;61668;45.388;11.784;2022-07-23T01:24:28;25.94;51.66
68578;SHT31;61668;45.388;11.784;2022-07-23T01:26:55;25.92;51.78
68578;SHT31;61668;45.388;11.784;2022-07-23T01:29:21;25.90;51.86
68578;SHT31;61668;45.388;11.784;2022-07-23T01:31:46;25.88;51.68
68578;SHT31;61668;45.388;11.784;2022-07-23T01:34:12;25.86;51.77
68578;SHT31;61668;45.388;11.784;2022-07-23T01:36:38;25.85;51.88
68578;SHT31;61668;45.388;11.784;2022-07-23T01:39:05;25.83;51.82
68578;SHT31;61668;45.388;11.784;2022-07-23T01:41:33;25.81;52.15
68578;SHT31;61668;45.388;11.784;2022-07-23T01:43:59;25.79;52.20
68578;SHT31;61668;45.388;11.784;2022-07-23T01:46:25;25.77;52.51
68578;SHT31;61668;45.388;11.784;2022-07-23T01:48:51;25.75;53.25
68578;SHT31;61668;45.388;11.784;2022-07-23T01:51:16;25.74;53.91
68578;SHT31;61668;45.388;11.784;2022-07-23T01:53:42;25.72;54.39
68578;SHT31;61668;45.388;11.784;2022-07-23T01:56:08;25.70;54.83
68578;SHT31;61668;45.388;11.784;2022-07-23T01:58:33;25.68;55.19
68578;SHT31;61668;45.388;11.784;2022-07-23T02:00:59;25.65;55.56
68578;SHT31;61668;45.388;11.784;2022-07-23T02:03:24;25.62;55.67
68578;SHT31;61668;45.388;11.784;2022-07-23T02:05:51;25.59;55.68
68578;SHT31;61668;45.388;11.784;2022-07-23T02:08:17;25.57;55.51
68578;SHT31;61668;45.388;11.784;2022-07-23T02:10:42;25.54;55.57
68578;SHT31;61668;45.388;11.784;2022-07-23T02:13:08;25.52;55.76
68578;SHT31;61668;45.388;11.784;2022-07-23T02:15:34;25.50;55.95
68578;SHT31;61668;45.388;11.784;2022-07-23T02:18:00;25.47;56.12
68578;SHT31;61668;45.388;11.784;2022-07-23T02:20:25;25.46;56.30
68578;SHT31;61668;45.388;11.784;2022-07-23T02:22:51;25.44;56.37
68578;SHT31;61668;45.388;11.784;2022-07-23T02:25:16;25.41;56.65
68578;SHT31;61668;45.388;11.784;2022-07-23T02:27:42;25.41;56.73
68578;SHT31;61668;45.388;11.784;2022-07-23T02:30:08;25.38;56.87
68578;SHT31;61668;45.388;11.784;2022-07-23T02:32:35;25.36;56.98
68578;SHT31;61668;45.388;11.784;2022-07-23T02:35:01;25.36;57.17
68578;SHT31;61668;45.388;11.784;2022-07-23T02:37:28;25.33;57.34
68578;SHT31;61668;45.388;11.784;2022-07-23T02:39:53;25.30;57.31
68578;SHT31;61668;45.388;11.784;2022-07-23T02:42:19;25.27;57.45
68578;SHT31;61668;45.388;11.784;2022-07-23T02:44:44;25.23;57.63
68578;SHT31;61668;45.388;11.784;2022-07-23T02:47:10;25.18;57.87
68578;SHT31;61668;45.388;11.784;2022-07-23T02:49:36;25.14;58.01
68578;SHT31;61668;45.388;11.784;2022-07-23T02:52:01;25.12;58.20
68578;SHT31;61668;45.388;11.784;2022-07-23T02:54:27;25.09;58.30
68578;SHT31;61668;45.388;11.784;2022-07-23T02:56:53;25.08;58.58
68578;SHT31;61668;45.388;11.784;2022-07-23T02:59:18;25.05;58.77
68578;SHT31;61668;45.388;11.784;2022-07-23T03:01:44;25.06;58.88
68578;SHT31;61668;45.388;11.784;2022-07-23T03:04:10;25.08;59.00
68578;SHT31;61668;45.388;11.784;2022-07-23T03:06:36;25.09;59.16
68578;SHT31;61668;45.388;11.784;2022-07-23T03:09:02;25.10;59.19
68578;SHT31;61668;45.388;11.784;2022-07-23T03:11:28;25.10;59.35
68578;SHT31;61668;45.388;11.784;2022-07-23T03:13:54;25.08;59.42
68578;SHT31;61668;45.388;11.784;2022-07-23T03:16:19;25.07;59.55
68578;SHT31;61668;45.388;11.784;2022-07-23T03:18:45;25.05;59.57
68578;SHT31;61668;45.388;11.784;2022-07-23T03:21:10;25.01;59.62
68578;SHT31;61668;45.388;11.784;2022-07-23T03:23:36;25.00;59.65
68578;SHT31;61668;45.388;11.784;2022-07-23T03:26:01;24.95;59.68
68578;SHT31;61668;45.388;11.784;2022-07-23T03:28:27;24.90;59.70
68578;SHT31;61668;45.388;11.784;2022-07-23T03:30:53;24.86;59.68
68578;SHT31;61668;45.388;11.784;2022-07-23T03:33:19;24.80;59.69
68578;SHT31;61668;45.388;11.784;2022-07-23T03:35:46;24.77;59.83
68578;SHT31;61668;45.388;11.784;2022-07-23T03:38:13;24.73;59.97
68578;SHT31;61668;45.388;11.784;2022-07-23T03:40:39;24.69;60.06
68578;SHT31;61668;45.388;11.784;2022-07-23T03:43:05;24.64;60.25
68578;SHT31;61668;45.388;11.784;2022-07-23T03:45:31;24.61;60.32
68578;SHT31;61668;45.388;11.784;2022-07-23T03:47:57;24.58;60.49
68578;SHT31;61668;45.388;11.784;2022-07-23T03:50:23;24.57;60.59
68578;SHT31;61668;45.388;11.784;2022-07-23T03:52:49;24.58;60.72
68578;SHT31;61668;45.388;11.784;2022-07-23T03:55:15;24.61;60.80
68578;SHT31;61668;45.388;11.784;2022-07-23T03:57:41;24.63;60.80
68578;SHT31;61668;45.388;11.784;2022-07-23T04:00:07;24.66;60.81
68578;SHT31;61668;45.388;11.784;2022-07-23T04:02:35;24.68;60.82
68578;SHT31;61668;45.388;11.784;2022-07-23T04:05:02;24.70;60.79
68578;SHT31;61668;45.388;11.784;2022-07-23T04:07:28;24.71;60.74
68578;SHT31;61668;45.388;11.784;2022-07-23T04:09:53;24.72;60.71
68578;SHT31;61668;45.388;11.784;2022-07-23T04:12:19;24.73;60.72
68578;SHT31;61668;45.388;11.784;2022-07-23T04:14:45;24.73;60.75
68578;SHT31;61668;45.388;11.784;2022-07-23T04:17:11;24.72;60.73
68578;SHT31;61668;45.388;11.784;2022-07-23T04:19:37;24.73;60.87
68578;SHT31;61668;45.388;11.784;2022-07-23T04:22:06;24.71;60.93
68578;SHT31;61668;45.388;11.784;2022-07-23T04:24:33;24.70;60.95
68578;SHT31;61668;45.388;11.784;2022-07-23T04:26:59;24.70;60.93
68578;SHT31;61668;45.388;11.784;2022-07-23T04:29:25;24.70;61.00
68578;SHT31;61668;45.388;11.784;2022-07-23T04:31:51;24.69;61.08
68578;SHT31;61668;45.388;11.784;2022-07-23T04:34:17;24.70;61.15
68578;SHT31;61668;45.388;11.784;2022-07-23T04:36:42;24.71;61.13
68578;SHT31;61668;45.388;11.784;2022-07-23T04:39:08;24.73;61.10
68578;SHT31;61668;45.388;11.784;2022-07-23T04:41:33;24.73;60.84
68578;SHT31;61668;45.388;11.784;2022-07-23T04:43:59;24.73;60.76
68578;SHT31;61668;45.388;11.784;2022-07-23T04:46:26;24.73;60.87
68578;SHT31;61668;45.388;11.784;2022-07-23T04:48:53;24.74;60.90
68578;SHT31;61668;45.388;11.784;2022-07-23T04:51:19;24.79;60.82
68578;SHT31;61668;45.388;11.784;2022-07-23T04:53:45;24.86;60.69
68578;SHT31;61668;45.388;11.784;2022-07-23T04:56:10;24.93;60.49
68578;SHT31;61668;45.388;11.784;2022-07-23T04:58:36;25.00;60.28
68578;SHT31;61668;45.388;11.784;2022-07-23T05:01:01;25.06;60.03
68578;SHT31;61668;45.388;11.784;2022-07-23T05:03:27;25.12;60.00
68578;SHT31;61668;45.388;11.784;2022-07-23T05:05:53;25.18;59.99
68578;SHT31;61668;45.388;11.784;2022-07-23T05:08:19;25.23;59.64
68578;SHT31;61668;45.388;11.784;2022-07-23T05:10:45;25.27;59.29
68578;SHT31;61668;45.388;11.784;2022-07-23T05:13:11;25.30;59.10
68578;SHT31;61668;45.388;11.784;2022-07-23T05:15:37;25.35;59.05
68578;SHT31;61668;45.388;11.784;2022-07-23T05:18:02;25.38;58.97
68578;SHT31;61668;45.388;11.784;2022-07-23T05:20:28;25.43;58.94
68578;SHT31;61668;45.388;11.784;2022-07-23T05:22:53;25.49;58.86
68578;SHT31;61668;45.388;11.784;2022-07-23T05:25:19;25.55;58.71
68578;SHT31;61668;45.388;11.784;2022-07-23T05:27:45;25.60;58.69
68578;SHT31;61668;45.388;11.784;2022-07-23T05:30:10;25.63;58.74
68578;SHT31;61668;45.388;11.784;2022-07-23T05:32:36;25.72;58.84
68578;SHT31;61668;45.388;11.784;2022-07-23T05:35:04;25.79;58.80
68578;SHT31;61668;45.388;11.784;2022-07-23T05:37:31;25.86;59.00
68578;SHT31;61668;45.388;11.784;2022-07-23T05:40:03;25.93;59.31
68578;SHT31;61668;45.388;11.784;2022-07-23T05:42:33;26.01;59.35
68578;SHT31;61668;45.388;11.784;2022-07-23T05:44:59;26.10;59.60
68578;SHT31;61668;45.388;11.784;2022-07-23T05:47:25;26.22;59.36
68578;SHT31;61668;45.388;11.784;2022-07-23T05:49:50;26.36;59.29
68578;SHT31;61668;45.388;11.784;2022-07-23T05:52:16;26.60;59.17
68578;SHT31;61668;45.388;11.784;2022-07-23T05:54:41;26.88;58.38
68578;SHT31;61668;45.388;11.784;2022-07-23T05:57:07;27.15;58.31
68578;SHT31;61668;45.388;11.784;2022-07-23T05:59:32;27.50;58.16
68578;SHT31;61668;45.388;11.784;2022-07-23T06:01:58;27.83;58.42
68578;SHT31;61668;45.388;11.784;2022-07-23T06:04:23;28.23;57.74
68578;SHT31;61668;45.388;11.784;2022-07-23T06:06:49;28.64;57.40
68578;SHT31;61668;45.388;11.784;2022-07-23T06:09:15;29.07;56.71
68578;SHT31;61668;45.388;11.784;2022-07-23T06:11:40;29.59;56.22
68578;SHT31;61668;45.388;11.784;2022-07-23T06:14:06;30.13;55.63
68578;SHT31;61668;45.388;11.784;2022-07-23T06:16:32;30.63;54.53
68578;SHT31;61668;45.388;11.784;2022-07-23T06:18:57;31.10;53.64
68578;SHT31;61668;45.388;11.784;2022-07-23T06:21:23;31.60;53.60
68578;SHT31;61668;45.388;11.784;2022-07-23T06:23:48;32.10;52.82
68578;SHT31;61668;45.388;11.784;2022-07-23T06:26:14;32.56;52.39
68578;SHT31;61668;45.388;11.784;2022-07-23T06:28:39;33.01;51.22
68578;SHT31;61668;45.388;11.784;2022-07-23T06:31:05;33.39;50.36
68578;SHT31;61668;45.388;11.784;2022-07-23T06:33:31;33.66;51.26
68578;SHT31;61668;45.388;11.784;2022-07-23T06:35:56;33.80;51.25
68578;SHT31;61668;45.388;11.784;2022-07-23T06:38:22;33.96;51.11
68578;SHT31;61668;45.388;11.784;2022-07-23T06:40:47;34.17;50.74
68578;SHT31;61668;45.388;11.784;2022-07-23T06:43:13;34.29;50.19
68578;SHT31;61668;45.388;11.784;2022-07-23T06:45:38;34.23;50.27
68578;SHT31;61668;45.388;11.784;2022-07-23T06:48:04;34.21;49.94
68578;SHT31;61668;45.388;11.784;2022-07-23T06:50:30;34.33;49.82
68578;SHT31;61668;45.388;11.784;2022-07-23T06:52:55;34.36;48.66
68578;SHT31;61668;45.388;11.784;2022-07-23T06:55:21;34.25;48.48
68578;SHT31;61668;45.388;11.784;2022-07-23T06:57:46;34.25;47.80
68578;SHT31;61668;45.388;11.784;2022-07-23T07:00:12;34.25;47.58
68578;SHT31;61668;45.388;11.784;2022-07-23T07:02:38;34.07;47.80
68578;SHT31;61668;45.388;11.784;2022-07-23T07:05:04;33.91;47.94
68578;SHT31;61668;45.388;11.784;2022-07-23T07:07:29;33.77;47.84
68578;SHT31;61668;45.388;11.784;2022-07-23T07:09:55;33.66;47.92
68578;SHT31;61668;45.388;11.784;2022-07-23T07:12:20;33.57;48.38
68578;SHT31;61668;45.388;11.784;2022-07-23T07:14:46;33.49;48.94
68578;SHT31;61668;45.388;11.784;2022-07-23T07:17:11;33.42;48.84
68578;SHT31;61668;45.388;11.784;2022-07-23T07:19:37;33.36;49.16
68578;SHT31;61668;45.388;11.784;2022-07-23T07:22:02;33.33;49.30
68578;SHT31;61668;45.388;11.784;2022-07-23T07:24:28;33.27;49.46
68578;SHT31;61668;45.388;11.784;2022-07-23T07:26:53;33.25;49.50
68578;SHT31;61668;45.388;11.784;2022-07-23T07:29:19;33.24;49.52
68578;SHT31;61668;45.388;11.784;2022-07-23T07:31:44;33.21;49.24
68578;SHT31;61668;45.388;11.784;2022-07-23T07:34:10;33.21;49.57
68578;SHT31;61668;45.388;11.784;2022-07-23T07:36:36;33.21;48.93
68578;SHT31;61668;45.388;11.784;2022-07-23T07:39:03;33.17;48.48
68578;SHT31;61668;45.388;11.784;2022-07-23T07:41:30;33.14;48.46
68578;SHT31;61668;45.388;11.784;2022-07-23T07:43:56;33.13;47.74
68578;SHT31;61668;45.388;11.784;2022-07-23T07:46:22;33.08;48.03
68578;SHT31;61668;45.388;11.784;2022-07-23T07:48:49;33.08;47.85
68578;SHT31;61668;45.388;11.784;2022-07-23T07:51:15;33.12;47.76
68578;SHT31;61668;45.388;11.784;2022-07-23T07:53:41;33.14;47.12
68578;SHT31;61668;45.388;11.784;2022-07-23T07:56:06;33.18;47.27
68578;SHT31;61668;45.388;11.784;2022-07-23T07:58:32;33.22;47.33
68578;SHT31;61668;45.388;11.784;2022-07-23T08:00:58;33.28;46.28
68578;SHT31;61668;45.388;11.784;2022-07-23T08:03:23;33.47;46.29
68578;SHT31;61668;45.388;11.784;2022-07-23T08:05:49;34.28;45.46
68578;SHT31;61668;45.388;11.784;2022-07-23T08:08:14;35.48;43.65
68578;SHT31;61668;45.388;11.784;2022-07-23T08:10:42;36.14;42.53
68578;SHT31;61668;45.388;11.784;2022-07-23T08:13:11;36.63;40.57
68578;SHT31;61668;45.388;11.784;2022-07-23T08:15:40;37.08;39.92
68578;SHT31;61668;45.388;11.784;2022-07-23T08:18:06;37.48;38.90
68578;SHT31;61668;45.388;11.784;2022-07-23T08:20:31;38.19;37.57
68578;SHT31;61668;45.388;11.784;2022-07-23T08:23:04;39.35;36.88
68578;SHT31;61668;45.388;11.784;2022-07-23T08:25:33;40.05;36.16
68578;SHT31;61668;45.388;11.784;2022-07-23T08:28:02;40.74;34.57
68578;SHT31;61668;45.388;11.784;2022-07-23T08:30:31;41.76;33.02
68578;SHT31;61668;45.388;11.784;2022-07-23T08:33:01;42.49;31.77
68578;SHT31;61668;45.388;11.784;2022-07-23T08:38:12;43.76;30.16
68578;SHT31;61668;45.388;11.784;2022-07-23T08:40:42;44.32;29.34
68578;SHT31;61668;45.388;11.784;2022-07-23T08:43:12;44.60;28.69
68578;SHT31;61668;45.388;11.784;2022-07-23T08:45:44;45.01;28.28
68578;SHT31;61668;45.388;11.784;2022-07-23T08:48:18;45.52;28.62
68578;SHT31;61668;45.388;11.784;2022-07-23T08:50:47;46.00;28.27
68578;SHT31;61668;45.388;11.784;2022-07-23T08:53:19;46.48;28.22
68578;SHT31;61668;45.388;11.784;2022-07-23T08:55:48;46.91;27.12
68578;SHT31;61668;45.388;11.784;2022-07-23T08:58:19;46.97;26.20
68578;SHT31;61668;45.388;11.784;2022-07-23T09:00:46;46.85;26.60
68578;SHT31;61668;45.388;11.784;2022-07-23T09:03:20;47.02;25.77
68578;SHT31;61668;45.388;11.784;2022-07-23T09:05:51;46.87;25.43
68578;SHT31;61668;45.388;11.784;2022-07-23T09:08:20;46.66;25.78
68578;SHT31;61668;45.388;11.784;2022-07-23T09:11:02;46.40;24.66
68578;SHT31;61668;45.388;11.784;2022-07-23T09:16:15;45.64;25.32
68578;SHT31;61668;45.388;11.784;2022-07-23T09:18:57;45.61;24.93
68578;SHT31;61668;45.388;11.784;2022-07-23T09:21:38;45.58;25.60
68578;SHT31;61668;45.388;11.784;2022-07-23T09:24:08;45.51;25.64
68578;SHT31;61668;45.388;11.784;2022-07-23T09:31:57;44.31;26.36
68578;SHT31;61668;45.388;11.784;2022-07-23T09:34:31;43.74;26.61
68578;SHT31;61668;45.388;11.784;2022-07-23T09:37:11;43.32;27.49
68578;SHT31;61668;45.388;11.784;2022-07-23T09:39:42;43.11;27.85
68578;SHT31;61668;45.388;11.784;2022-07-23T09:42:17;42.88;27.35
68578;SHT31;61668;45.388;11.784;2022-07-23T09:44:49;42.68;27.59
68578;SHT31;61668;45.388;11.784;2022-07-23T09:47:20;42.38;27.71
68578;SHT31;61668;45.388;11.784;2022-07-23T09:50:05;42.15;27.82
68578;SHT31;61668;45.388;11.784;2022-07-23T09:55:12;42.06;28.04
68578;SHT31;61668;45.388;11.784;2022-07-23T09:57:38;42.20;28.56
68578;SHT31;61668;45.388;11.784;2022-07-23T10:00:06;42.36;28.62
68578;SHT31;61668;45.388;11.784;2022-07-23T10:02:35;42.45;27.96
68578;SHT31;61668;45.388;11.784;2022-07-23T10:05:03;42.42;27.32
68578;SHT31;61668;45.388;11.784;2022-07-23T10:07:34;42.33;27.28
68578;SHT31;61668;45.388;11.784;2022-07-23T10:10:03;42.14;27.78
68578;SHT31;61668;45.388;11.784;2022-07-23T10:12:30;42.11;28.03
68578;SHT31;61668;45.388;11.784;2022-07-23T10:15:08;42.07;27.18
68578;SHT31;61668;45.388;11.784;2022-07-23T10:17:34;41.90;26.88
68578;SHT31;61668;45.388;11.784;2022-07-23T10:20:01;41.81;27.11
68578;SHT31;61668;45.388;11.784;2022-07-23T10:22:31;41.84;27.04
68578;SHT31;61668;45.388;11.784;2022-07-23T10:36:32;41.95;25.37
68578;SHT31;61668;45.388;11.784;2022-07-23T10:39:20;41.97;25.87
68578;SHT31;61668;45.388;11.784;2022-07-23T10:41:51;42.05;25.97
68578;SHT31;61668;45.388;11.784;2022-07-23T10:44:18;42.04;25.93
68578;SHT31;61668;45.388;11.784;2022-07-23T10:49:31;42.42;26.90
68578;SHT31;61668;45.388;11.784;2022-07-23T10:52:15;42.65;26.64
68578;SHT31;61668;45.388;11.784;2022-07-23T10:54:56;42.77;25.37
68578;SHT31;61668;45.388;11.784;2022-07-23T10:57:51;42.81;24.68
68578;SHT31;61668;45.388;11.784;2022-07-23T11:00:20;42.79;24.37
68578;SHT31;61668;45.388;11.784;2022-07-23T11:03:04;42.67;24.14
68578;SHT31;61668;45.388;11.784;2022-07-23T11:06:09;42.50;24.07
68578;SHT31;61668;45.388;11.784;2022-07-23T11:08:35;42.48;24.57
68578;SHT31;61668;45.388;11.784;2022-07-23T11:16:07;42.52;23.98
68578;SHT31;61668;45.388;11.784;2022-07-23T11:26:42;42.41;22.47
68578;SHT31;61668;45.388;11.784;2022-07-23T11:31:53;42.58;23.38
68578;SHT31;61668;45.388;11.784;2022-07-23T11:37:04;42.62;23.04
68578;SHT31;61668;45.388;11.784;2022-07-23T11:39:32;42.86;23.74
68578;SHT31;61668;45.388;11.784;2022-07-23T11:41:59;43.02;22.56
68578;SHT31;61668;45.388;11.784;2022-07-23T11:44:27;43.13;22.29
68578;SHT31;61668;45.388;11.784;2022-07-23T11:46:54;43.18;22.33
68578;SHT31;61668;45.388;11.784;2022-07-23T11:49:22;43.06;21.62
68578;SHT31;61668;45.388;11.784;2022-07-23T11:52:08;42.69;21.55
68578;SHT31;61668;45.388;11.784;2022-07-23T11:54:36;42.14;22.31
68578;SHT31;61668;45.388;11.784;2022-07-23T11:57:30;41.63;22.36
68578;SHT31;61668;45.388;11.784;2022-07-23T12:00:12;41.22;24.01
68578;SHT31;61668;45.388;11.784;2022-07-23T12:02:46;41.18;26.07
68578;SHT31;61668;45.388;11.784;2022-07-23T12:05:14;41.55;26.23
68578;SHT31;61668;45.388;11.784;2022-07-23T12:07:43;41.98;24.98
68578;SHT31;61668;45.388;11.784;2022-07-23T12:10:18;42.35;24.32
68578;SHT31;61668;45.388;11.784;2022-07-23T12:12:51;42.54;23.66
68578;SHT31;61668;45.388;11.784;2022-07-23T12:15:27;42.62;23.64
68578;SHT31;61668;45.388;11.784;2022-07-23T12:17:55;42.70;23.66
68578;SHT31;61668;45.388;11.784;2022-07-23T12:20:22;42.77;23.49
68578;SHT31;61668;45.388;11.784;2022-07-23T12:22:57;42.80;24.68
68578;SHT31;61668;45.388;11.784;2022-07-23T12:25:30;43.03;24.10
68578;SHT31;61668;45.388;11.784;2022-07-23T12:28:01;43.03;23.34
68578;SHT31;61668;45.388;11.784;2022-07-23T12:30:43;43.14;24.10
68578;SHT31;61668;45.388;11.784;2022-07-23T12:33:12;43.19;23.02
68578;SHT31;61668;45.388;11.784;2022-07-23T12:35:45;43.11;23.32
68578;SHT31;61668;45.388;11.784;2022-07-23T12:40:44;43.12;23.17
68578;SHT31;61668;45.388;11.784;2022-07-23T12:43:23;43.00;22.90
68578;SHT31;61668;45.388;11.784;2022-07-23T12:45:51;42.86;23.03
68578;SHT31;61668;45.388;11.784;2022-07-23T12:48:20;42.82;23.60
68578;SHT31;61668;45.388;11.784;2022-07-23T12:50:50;42.95;23.81
68578;SHT31;61668;45.388;11.784;2022-07-23T12:55:59;43.02;23.43
68578;SHT31;61668;45.388;11.784;2022-07-23T12:58:38;42.96;23.95
68578;SHT31;61668;45.388;11.784;2022-07-23T13:01:32;42.96;23.69
68578;SHT31;61668;45.388;11.784;2022-07-23T13:04:10;42.86;23.93
68578;SHT31;61668;45.388;11.784;2022-07-23T13:06:45;42.82;24.00
68578;SHT31;61668;45.388;11.784;2022-07-23T13:09:18;42.85;24.15
68578;SHT31;61668;45.388;11.784;2022-07-23T13:11:53;42.91;23.94
68578;SHT31;61668;45.388;11.784;2022-07-23T13:14:20;42.77;23.63
68578;SHT31;61668;45.388;11.784;2022-07-23T13:16:51;42.66;23.79
68578;SHT31;61668;45.388;11.784;2022-07-23T13:19:18;42.61;23.68
68578;SHT31;61668;45.388;11.784;2022-07-23T13:21:45;42.54;23.82
68578;SHT31;61668;45.388;11.784;2022-07-23T13:24:11;42.47;24.08
68578;SHT31;61668;45.388;11.784;2022-07-23T13:26:38;42.43;23.98
68578;SHT31;61668;45.388;11.784;2022-07-23T13:29:05;42.37;24.16
68578;SHT31;61668;45.388;11.784;2022-07-23T13:31:31;42.31;24.51
68578;SHT31;61668;45.388;11.784;2022-07-23T13:33:57;42.38;24.73
68578;SHT31;61668;45.388;11.784;2022-07-23T13:36:23;42.39;24.00
68578;SHT31;61668;45.388;11.784;2022-07-23T13:38:48;42.25;23.93
68578;SHT31;61668;45.388;11.784;2022-07-23T13:41:15;42.24;23.95
68578;SHT31;61668;45.388;11.784;2022-07-23T13:43:42;42.21;24.13
68578;SHT31;61668;45.388;11.784;2022-07-23T13:46:08;42.24;24.38
68578;SHT31;61668;45.388;11.784;2022-07-23T13:48:34;42.08;23.66
68578;SHT31;61668;45.388;11.784;2022-07-23T13:50:59;41.83;23.98
68578;SHT31;61668;45.388;11.784;2022-07-23T13:53:25;41.68;24.08
68578;SHT31;61668;45.388;11.784;2022-07-23T13:55:51;41.56;24.51
68578;SHT31;61668;45.388;11.784;2022-07-23T13:58:18;41.60;24.83
68578;SHT31;61668;45.388;11.784;2022-07-23T14:00:46;41.69;24.46
68578;SHT31;61668;45.388;11.784;2022-07-23T14:03:16;41.60;24.14
68578;SHT31;61668;45.388;11.784;2022-07-23T14:05:44;41.43;24.35
68578;SHT31;61668;45.388;11.784;2022-07-23T14:08:10;41.36;24.24
68578;SHT31;61668;45.388;11.784;2022-07-23T14:10:36;41.22;24.13
68578;SHT31;61668;45.388;11.784;2022-07-23T14:13:02;41.24;24.81
68578;SHT31;61668;45.388;11.784;2022-07-23T14:15:29;41.33;24.43
68578;SHT31;61668;45.388;11.784;2022-07-23T14:17:56;41.35;24.41
68578;SHT31;61668;45.388;11.784;2022-07-23T14:20:23;41.32;24.43
68578;SHT31;61668;45.388;11.784;2022-07-23T14:22:49;41.26;24.26
68578;SHT31;61668;45.388;11.784;2022-07-23T14:25:15;41.24;24.99
68578;SHT31;61668;45.388;11.784;2022-07-23T14:27:42;41.37;24.36
68578;SHT31;61668;45.388;11.784;2022-07-23T14:30:09;41.34;24.41
68578;SHT31;61668;45.388;11.784;2022-07-23T14:32:36;41.35;24.59
68578;SHT31;61668;45.388;11.784;2022-07-23T14:35:02;41.39;24.66
68578;SHT31;61668;45.388;11.784;2022-07-23T14:37:29;41.33;24.40
68578;SHT31;61668;45.388;11.784;2022-07-23T14:39:54;41.33;24.82
68578;SHT31;61668;45.388;11.784;2022-07-23T14:42:20;41.31;24.48
68578;SHT31;61668;45.388;11.784;2022-07-23T14:44:45;41.24;24.69
68578;SHT31;61668;45.388;11.784;2022-07-23T14:47:11;41.23;24.62
68578;SHT31;61668;45.388;11.784;2022-07-23T14:49:37;41.25;24.48
68578;SHT31;61668;45.388;11.784;2022-07-23T14:52:03;41.14;24.47
68578;SHT31;61668;45.388;11.784;2022-07-23T14:54:30;40.99;25.15
68578;SHT31;61668;45.388;11.784;2022-07-23T14:56:58;40.92;25.40
68578;SHT31;61668;45.388;11.784;2022-07-23T14:59:25;40.77;25.42
68578;SHT31;61668;45.388;11.784;2022-07-23T15:01:51;40.63;25.80
68578;SHT31;61668;45.388;11.784;2022-07-23T15:04:18;40.43;25.97
68578;SHT31;61668;45.388;11.784;2022-07-23T15:06:43;40.26;26.40
68578;SHT31;61668;45.388;11.784;2022-07-23T15:09:10;40.22;26.63
68578;SHT31;61668;45.388;11.784;2022-07-23T15:11:35;40.23;26.68
68578;SHT31;61668;45.388;11.784;2022-07-23T15:14:05;40.19;26.31
68578;SHT31;61668;45.388;11.784;2022-07-23T15:16:32;40.17;26.69
68578;SHT31;61668;45.388;11.784;2022-07-23T15:18:58;40.19;26.69
68578;SHT31;61668;45.388;11.784;2022-07-23T15:21:26;40.17;27.02
68578;SHT31;61668;45.388;11.784;2022-07-23T15:23:54;40.18;27.38
68578;SHT31;61668;45.388;11.784;2022-07-23T15:26:20;40.16;26.82
68578;SHT31;61668;45.388;11.784;2022-07-23T15:28:48;40.11;26.96
68578;SHT31;61668;45.388;11.784;2022-07-23T15:31:13;40.02;27.17
68578;SHT31;61668;45.388;11.784;2022-07-23T15:33:39;39.97;27.73
68578;SHT31;61668;45.388;11.784;2022-07-23T15:36:05;39.97;28.28
68578;SHT31;61668;45.388;11.784;2022-07-23T15:38:31;39.99;28.29
68578;SHT31;61668;45.388;11.784;2022-07-23T15:40:57;39.97;27.03
68578;SHT31;61668;45.388;11.784;2022-07-23T15:43:23;39.87;25.97
68578;SHT31;61668;45.388;11.784;2022-07-23T15:45:50;39.83;25.16
68578;SHT31;61668;45.388;11.784;2022-07-23T15:48:17;39.77;25.02
68578;SHT31;61668;45.388;11.784;2022-07-23T15:50:44;39.73;25.55
68578;SHT31;61668;45.388;11.784;2022-07-23T15:53:10;39.65;25.73
68578;SHT31;61668;45.388;11.784;2022-07-23T15:55:36;39.56;25.44
68578;SHT31;61668;45.388;11.784;2022-07-23T15:58:04;39.47;25.33
68578;SHT31;61668;45.388;11.784;2022-07-23T16:00:31;39.37;25.59
68578;SHT31;61668;45.388;11.784;2022-07-23T16:02:57;39.25;25.52
68578;SHT31;61668;45.388;11.784;2022-07-23T16:05:22;39.14;25.71
68578;SHT31;61668;45.388;11.784;2022-07-23T16:07:48;39.04;27.15
68578;SHT31;61668;45.388;11.784;2022-07-23T16:10:13;38.94;28.08
68578;SHT31;61668;45.388;11.784;2022-07-23T16:12:39;38.80;26.99